sensor_id;sensor_type;location;lat;lon;timestamp;P1;durP1;ratioP1;P2;durP2;ratioP2
5491;SDS011;2768;53.540;10.224;2022-11-15T00:04:42;24.47;;;18.40;;
5491;SDS011;2768;53.540;10.224;2022-11-15T00:10:54;21.80;;;17.10;;
5491;SDS011;2768;53.540;10.224;2022-11-15T00:17:09;23.63;;;18.70;;
5491;SDS011;2768;53.540;10.224;2022-11-15T00:23:21;21.70;;;16.73;;
5491;SDS011;2768;53.540;10.224;2022-11-15T00:29:32;24.70;;;18.30;;
5491;SDS011;2768;53.540;10.224;2022-11-15T00:35:46;22.40;;;17.37;;
5491;SDS011;2768;53.540;10.224;2022-11-15T00:41:58;22.57;;;16.90;;
5491;SDS011;2768;53.540;10.224;2022-11-15T00:48:09;21.13;;;16.17;;
5491;SDS011;2768;53.540;10.224;2022-11-15T00:54:23;21.80;;;16.63;;
5491;SDS011;2768;53.540;10.224;2022-11-15T01:00:35;19.70;;;15.13;;
5491;SDS011;2768;53.540;10.224;2022-11-15T01:06:47;21.07;;;16.00;;
5491;SDS011;2768;53.540;10.224;2022-11-15T01:13:04;21.53;;;16.87;;
5491;SDS011;2768;53.540;10.224;2022-11-15T01:19:16;20.27;;;16.73;;
5491;SDS011;2768;53.540;10.224;2022-11-15T01:25:28;23.50;;;17.23;;
5491;SDS011;2768;53.540;10.224;2022-11-15T01:31:41;22.00;;;16.40;;
5491;SDS011;2768;53.540;10.224;2022-11-15T01:37:53;21.03;;;16.57;;
5491;SDS011;2768;53.540;10.224;2022-11-15T01:50:58;18.57;;;14.67;;
5491;SDS011;2768;53.540;10.224;2022-11-15T01:57:12;22.17;;;16.17;;
5491;SDS011;2768;53.540;10.224;2022-11-15T02:03:30;17.07;;;14.60;;
5491;SDS011;2768;53.540;10.224;2022-11-15T02:09:47;15.77;;;13.77;;
5491;SDS011;2768;53.540;10.224;2022-11-15T02:16:01;16.53;;;13.47;;
5491;SDS011;2768;53.540;10.224;2022-11-15T02:22:21;15.80;;;13.60;;
5491;SDS011;2768;53.540;10.224;2022-11-15T02:28:50;15.83;;;13.50;;
5491;SDS011;2768;53.540;10.224;2022-11-15T02:35:12;17.33;;;13.87;;
5491;SDS011;2768;53.540;10.224;2022-11-15T02:41:34;16.53;;;14.43;;
5491;SDS011;2768;53.540;10.224;2022-11-15T02:47:54;13.60;;;11.60;;
5491;SDS011;2768;53.540;10.224;2022-11-15T02:54:12;14.90;;;12.33;;
5491;SDS011;2768;53.540;10.224;2022-11-15T03:00:26;12.93;;;11.53;;
5491;SDS011;2768;53.540;10.224;2022-11-15T03:06:46;14.07;;;12.13;;
5491;SDS011;2768;53.540;10.224;2022-11-15T03:13:07;13.87;;;11.80;;
5491;SDS011;2768;53.540;10.224;2022-11-15T03:19:30;12.83;;;11.47;;
5491;SDS011;2768;53.540;10.224;2022-11-15T03:25:48;13.40;;;11.90;;
5491;SDS011;2768;53.540;10.224;2022-11-15T03:32:05;15.57;;;12.17;;
5491;SDS011;2768;53.540;10.224;2022-11-15T03:38:26;13.23;;;11.83;;
5491;SDS011;2768;53.540;10.224;2022-11-15T03:44:45;15.03;;;13.00;;
5491;SDS011;2768;53.540;10.224;2022-11-15T03:51:03;12.53;;;11.10;;
5491;SDS011;2768;53.540;10.224;2022-11-15T03:57:16;13.10;;;11.80;;
5491;SDS011;2768;53.540;10.224;2022-11-15T04:03:28;12.30;;;10.90;;
5491;SDS011;2768;53.540;10.224;2022-11-15T04:09:42;11.40;;;10.13;;
5491;SDS011;2768;53.540;10.224;2022-11-15T04:16:12;11.20;;;10.00;;
5491;SDS011;2768;53.540;10.224;2022-11-15T04:22:24;12.50;;;11.00;;
5491;SDS011;2768;53.540;10.224;2022-11-15T04:28:51;11.57;;;10.37;;
5491;SDS011;2768;53.540;10.224;2022-11-15T04:35:21;12.57;;;11.20;;
5491;SDS011;2768;53.540;10.224;2022-11-15T04:41:33;14.17;;;11.70;;
5491;SDS011;2768;53.540;10.224;2022-11-15T04:47:46;13.67;;;11.03;;
5491;SDS011;2768;53.540;10.224;2022-11-15T04:53:58;13.57;;;11.63;;
5491;SDS011;2768;53.540;10.224;2022-11-15T05:00:11;14.20;;;12.70;;
5491;SDS011;2768;53.540;10.224;2022-11-15T05:06:26;16.20;;;12.60;;
5491;SDS011;2768;53.540;10.224;2022-11-15T05:12:39;15.53;;;12.90;;
5491;SDS011;2768;53.540;10.224;2022-11-15T05:18:51;18.60;;;13.50;;
5491;SDS011;2768;53.540;10.224;2022-11-15T05:25:05;15.53;;;12.37;;
5491;SDS011;2768;53.540;10.224;2022-11-15T05:31:18;13.30;;;11.47;;
5491;SDS011;2768;53.540;10.224;2022-11-15T05:37:30;14.17;;;12.67;;
5491;SDS011;2768;53.540;10.224;2022-11-15T05:43:43;13.80;;;11.63;;
5491;SDS011;2768;53.540;10.224;2022-11-15T05:49:56;16.57;;;13.00;;
5491;SDS011;2768;53.540;10.224;2022-11-15T05:56:12;14.93;;;13.13;;
5491;SDS011;2768;53.540;10.224;2022-11-15T06:02:26;17.30;;;13.20;;
5491;SDS011;2768;53.540;10.224;2022-11-15T06:08:39;15.57;;;12.77;;
5491;SDS011;2768;53.540;10.224;2022-11-15T06:14:50;13.20;;;11.70;;
5491;SDS011;2768;53.540;10.224;2022-11-15T06:21:04;16.63;;;13.10;;
5491;SDS011;2768;53.540;10.224;2022-11-15T06:27:16;14.50;;;12.70;;
5491;SDS011;2768;53.540;10.224;2022-11-15T06:33:28;16.73;;;13.40;;
5491;SDS011;2768;53.540;10.224;2022-11-15T06:39:42;16.10;;;12.77;;
5491;SDS011;2768;53.540;10.224;2022-11-15T06:45:54;15.70;;;11.97;;
5491;SDS011;2768;53.540;10.224;2022-11-15T06:52:06;15.60;;;13.10;;
5491;SDS011;2768;53.540;10.224;2022-11-15T06:58:20;16.13;;;13.90;;
5491;SDS011;2768;53.540;10.224;2022-11-15T07:04:33;14.67;;;12.70;;
5491;SDS011;2768;53.540;10.224;2022-11-15T07:10:46;14.97;;;13.03;;
5491;SDS011;2768;53.540;10.224;2022-11-15T07:17:00;15.50;;;13.63;;
5491;SDS011;2768;53.540;10.224;2022-11-15T07:23:16;16.57;;;13.17;;
5491;SDS011;2768;53.540;10.224;2022-11-15T07:29:28;16.13;;;13.00;;
5491;SDS011;2768;53.540;10.224;2022-11-15T07:35:42;17.50;;;15.63;;
5491;SDS011;2768;53.540;10.224;2022-11-15T07:41:56;15.77;;;12.90;;
5491;SDS011;2768;53.540;10.224;2022-11-15T07:48:22;14.10;;;12.47;;
5491;SDS011;2768;53.540;10.224;2022-11-15T07:54:39;15.30;;;13.43;;
5491;SDS011;2768;53.540;10.224;2022-11-15T08:00:51;14.83;;;13.20;;
5491;SDS011;2768;53.540;10.224;2022-11-15T08:07:04;15.80;;;13.20;;
5491;SDS011;2768;53.540;10.224;2022-11-15T08:13:17;12.87;;;11.33;;
5491;SDS011;2768;53.540;10.224;2022-11-15T08:19:29;15.43;;;13.00;;
5491;SDS011;2768;53.540;10.224;2022-11-15T08:25:41;15.50;;;12.90;;
5491;SDS011;2768;53.540;10.224;2022-11-15T08:31:55;12.90;;;11.60;;
5491;SDS011;2768;53.540;10.224;2022-11-15T08:38:07;16.03;;;11.83;;
5491;SDS011;2768;53.540;10.224;2022-11-15T08:44:19;14.83;;;13.23;;
5491;SDS011;2768;53.540;10.224;2022-11-15T08:50:33;15.20;;;11.93;;
5491;SDS011;2768;53.540;10.224;2022-11-15T08:56:45;13.17;;;11.37;;
5491;SDS011;2768;53.540;10.224;2022-11-15T09:02:58;13.53;;;12.00;;
5491;SDS011;2768;53.540;10.224;2022-11-15T09:09:11;13.47;;;11.70;;
5491;SDS011;2768;53.540;10.224;2022-11-15T09:15:23;16.90;;;11.97;;
5491;SDS011;2768;53.540;10.224;2022-11-15T09:21:35;12.50;;;10.70;;
5491;SDS011;2768;53.540;10.224;2022-11-15T09:27:50;14.90;;;11.90;;
5491;SDS011;2768;53.540;10.224;2022-11-15T09:34:02;12.40;;;10.60;;
5491;SDS011;2768;53.540;10.224;2022-11-15T09:40:14;12.73;;;10.87;;
5491;SDS011;2768;53.540;10.224;2022-11-15T09:46:35;13.63;;;11.73;;
5491;SDS011;2768;53.540;10.224;2022-11-15T09:52:58;14.07;;;10.60;;
5491;SDS011;2768;53.540;10.224;2022-11-15T09:58:54;12.73;;;10.50;;
5491;SDS011;2768;53.540;10.224;2022-11-15T10:05:00;12.33;;;9.60;;
5491;SDS011;2768;53.540;10.224;2022-11-15T10:10:55;11.10;;;10.00;;
5491;SDS011;2768;53.540;10.224;2022-11-15T10:23:33;11.83;;;9.47;;
5491;SDS011;2768;53.540;10.224;2022-11-15T10:29:27;10.53;;;8.97;;
5491;SDS011;2768;53.540;10.224;2022-11-15T10:35:22;13.50;;;9.83;;
5491;SDS011;2768;53.540;10.224;2022-11-15T10:41:19;11.87;;;9.00;;
5491;SDS011;2768;53.540;10.224;2022-11-15T10:47:22;10.20;;;9.10;;
5491;SDS011;2768;53.540;10.224;2022-11-15T10:53:30;13.47;;;9.23;;
5491;SDS011;2768;53.540;10.224;2022-11-15T10:59:28;9.07;;;8.07;;
5491;SDS011;2768;53.540;10.224;2022-11-15T11:05:30;10.90;;;9.80;;
5491;SDS011;2768;53.540;10.224;2022-11-15T11:11:43;10.97;;;8.33;;
5491;SDS011;2768;53.540;10.224;2022-11-15T11:17:44;10.83;;;9.73;;
5491;SDS011;2768;53.540;10.224;2022-11-15T11:23:51;9.60;;;8.60;;
5491;SDS011;2768;53.540;10.224;2022-11-15T11:29:51;9.30;;;7.83;;
5491;SDS011;2768;53.540;10.224;2022-11-15T11:35:59;9.10;;;8.20;;
5491;SDS011;2768;53.540;10.224;2022-11-15T11:42:00;9.40;;;8.47;;
5491;SDS011;2768;53.540;10.224;2022-11-15T11:48:04;12.90;;;8.77;;
5491;SDS011;2768;53.540;10.224;2022-11-15T11:54:10;9.43;;;8.47;;
5491;SDS011;2768;53.540;10.224;2022-11-15T12:00:12;9.43;;;8.40;;
5491;SDS011;2768;53.540;10.224;2022-11-15T12:06:14;9.83;;;8.17;;
5491;SDS011;2768;53.540;10.224;2022-11-15T12:12:19;10.13;;;7.90;;
5491;SDS011;2768;53.540;10.224;2022-11-15T12:18:20;10.10;;;8.80;;
5491;SDS011;2768;53.540;10.224;2022-11-15T12:24:14;8.87;;;7.97;;
5491;SDS011;2768;53.540;10.224;2022-11-15T12:30:14;11.50;;;8.43;;
5491;SDS011;2768;53.540;10.224;2022-11-15T12:36:10;8.97;;;8.07;;
5491;SDS011;2768;53.540;10.224;2022-11-15T12:55:01;8.80;;;8.00;;
5491;SDS011;2768;53.540;10.224;2022-11-15T13:07:57;8.83;;;8.00;;
5491;SDS011;2768;53.540;10.224;2022-11-15T13:13:51;8.77;;;7.20;;
5491;SDS011;2768;53.540;10.224;2022-11-15T13:19:46;9.10;;;7.33;;
5491;SDS011;2768;53.540;10.224;2022-11-15T13:25:48;9.00;;;8.03;;
5491;SDS011;2768;53.540;10.224;2022-11-15T13:32:09;7.70;;;6.93;;
5491;SDS011;2768;53.540;10.224;2022-11-15T13:38:04;9.20;;;7.70;;
5491;SDS011;2768;53.540;10.224;2022-11-15T13:44:00;9.13;;;7.57;;
5491;SDS011;2768;53.540;10.224;2022-11-15T13:49:56;8.67;;;7.77;;
5491;SDS011;2768;53.540;10.224;2022-11-15T13:55:50;9.53;;;7.67;;
5491;SDS011;2768;53.540;10.224;2022-11-15T14:01:48;9.60;;;8.43;;
5491;SDS011;2768;53.540;10.224;2022-11-15T14:07:52;8.93;;;7.30;;
5491;SDS011;2768;53.540;10.224;2022-11-15T14:13:59;9.03;;;7.20;;
5491;SDS011;2768;53.540;10.224;2022-11-15T14:19:59;7.90;;;6.80;;
5491;SDS011;2768;53.540;10.224;2022-11-15T14:25:53;10.23;;;7.10;;
5491;SDS011;2768;53.540;10.224;2022-11-15T14:31:47;8.83;;;7.40;;
5491;SDS011;2768;53.540;10.224;2022-11-15T14:37:42;8.17;;;6.70;;
5491;SDS011;2768;53.540;10.224;2022-11-15T14:43:36;8.00;;;7.20;;
5491;SDS011;2768;53.540;10.224;2022-11-15T14:49:29;7.57;;;6.87;;
5491;SDS011;2768;53.540;10.224;2022-11-15T14:55:25;10.30;;;7.30;;
5491;SDS011;2768;53.540;10.224;2022-11-15T15:01:20;8.40;;;6.67;;
5491;SDS011;2768;53.540;10.224;2022-11-15T15:07:16;13.20;;;7.10;;
5491;SDS011;2768;53.540;10.224;2022-11-15T15:13:15;8.70;;;6.33;;
5491;SDS011;2768;53.540;10.224;2022-11-15T15:19:10;7.53;;;6.77;;
5491;SDS011;2768;53.540;10.224;2022-11-15T15:25:08;7.77;;;6.67;;
5491;SDS011;2768;53.540;10.224;2022-11-15T15:31:13;6.93;;;5.87;;
5491;SDS011;2768;53.540;10.224;2022-11-15T15:37:08;7.80;;;6.50;;
5491;SDS011;2768;53.540;10.224;2022-11-15T15:43:11;7.83;;;6.60;;
5491;SDS011;2768;53.540;10.224;2022-11-15T15:49:07;6.77;;;6.07;;
5491;SDS011;2768;53.540;10.224;2022-11-15T15:55:02;9.00;;;7.90;;
5491;SDS011;2768;53.540;10.224;2022-11-15T16:00:57;10.50;;;9.10;;
5491;SDS011;2768;53.540;10.224;2022-11-15T16:06:52;8.73;;;7.50;;
5491;SDS011;2768;53.540;10.224;2022-11-15T16:12:50;9.60;;;8.60;;
5491;SDS011;2768;53.540;10.224;2022-11-15T16:18:44;8.07;;;7.23;;
5491;SDS011;2768;53.540;10.224;2022-11-15T16:24:39;8.47;;;7.20;;
5491;SDS011;2768;53.540;10.224;2022-11-15T16:30:32;7.93;;;6.67;;
5491;SDS011;2768;53.540;10.224;2022-11-15T16:36:25;10.73;;;7.40;;
5491;SDS011;2768;53.540;10.224;2022-11-15T16:42:23;8.40;;;7.60;;
5491;SDS011;2768;53.540;10.224;2022-11-15T16:48:19;7.87;;;7.07;;
5491;SDS011;2768;53.540;10.224;2022-11-15T16:54:15;7.70;;;7.00;;
5491;SDS011;2768;53.540;10.224;2022-11-15T17:00:11;8.37;;;7.57;;
5491;SDS011;2768;53.540;10.224;2022-11-15T17:06:07;8.73;;;7.93;;
5491;SDS011;2768;53.540;10.224;2022-11-15T17:12:02;9.50;;;7.63;;
5491;SDS011;2768;53.540;10.224;2022-11-15T17:17:57;7.77;;;7.00;;
5491;SDS011;2768;53.540;10.224;2022-11-15T17:23:51;10.40;;;8.30;;
5491;SDS011;2768;53.540;10.224;2022-11-15T17:29:44;8.20;;;7.40;;
5491;SDS011;2768;53.540;10.224;2022-11-15T17:35:39;10.50;;;8.53;;
5491;SDS011;2768;53.540;10.224;2022-11-15T17:41:33;8.60;;;7.73;;
5491;SDS011;2768;53.540;10.224;2022-11-15T17:47:26;10.87;;;9.77;;
5491;SDS011;2768;53.540;10.224;2022-11-15T17:53:21;11.03;;;9.17;;
5491;SDS011;2768;53.540;10.224;2022-11-15T17:59:14;15.10;;;11.23;;
5491;SDS011;2768;53.540;10.224;2022-11-15T18:05:12;9.30;;;8.17;;
5491;SDS011;2768;53.540;10.224;2022-11-15T18:11:07;11.53;;;8.10;;
5491;SDS011;2768;53.540;10.224;2022-11-15T18:17:02;12.37;;;10.47;;
5491;SDS011;2768;53.540;10.224;2022-11-15T18:22:56;9.90;;;7.63;;
5491;SDS011;2768;53.540;10.224;2022-11-15T18:28:50;9.77;;;8.23;;
5491;SDS011;2768;53.540;10.224;2022-11-15T18:34:45;9.53;;;7.93;;
5491;SDS011;2768;53.540;10.224;2022-11-15T18:40:38;9.57;;;8.03;;
5491;SDS011;2768;53.540;10.224;2022-11-15T18:46:33;9.20;;;7.87;;
5491;SDS011;2768;53.540;10.224;2022-11-15T18:52:26;8.50;;;7.60;;
5491;SDS011;2768;53.540;10.224;2022-11-15T18:58:20;9.40;;;8.07;;
5491;SDS011;2768;53.540;10.224;2022-11-15T19:04:15;8.60;;;7.70;;
5491;SDS011;2768;53.540;10.224;2022-11-15T19:10:10;11.10;;;9.20;;
5491;SDS011;2768;53.540;10.224;2022-11-15T19:16:04;10.33;;;8.37;;
5491;SDS011;2768;53.540;10.224;2022-11-15T19:22:00;12.83;;;8.93;;
5491;SDS011;2768;53.540;10.224;2022-11-15T19:27:54;10.23;;;9.17;;
5491;SDS011;2768;53.540;10.224;2022-11-15T19:33:47;10.50;;;9.10;;
5491;SDS011;2768;53.540;10.224;2022-11-15T19:39:42;13.70;;;11.53;;
5491;SDS011;2768;53.540;10.224;2022-11-15T19:45:36;11.07;;;9.83;;
5491;SDS011;2768;53.540;10.224;2022-11-15T19:51:29;12.73;;;10.67;;
5491;SDS011;2768;53.540;10.224;2022-11-15T19:57:24;11.97;;;10.83;;
5491;SDS011;2768;53.540;10.224;2022-11-15T20:03:17;12.67;;;10.80;;
5491;SDS011;2768;53.540;10.224;2022-11-15T20:09:11;13.00;;;10.70;;
5491;SDS011;2768;53.540;10.224;2022-11-15T20:15:08;16.30;;;11.50;;
5491;SDS011;2768;53.540;10.224;2022-11-15T20:21:02;14.57;;;11.57;;
5491;SDS011;2768;53.540;10.224;2022-11-15T20:26:57;16.77;;;12.10;;
5491;SDS011;2768;53.540;10.224;2022-11-15T20:32:51;16.93;;;12.37;;
5491;SDS011;2768;53.540;10.224;2022-11-15T20:38:45;14.70;;;12.77;;
5491;SDS011;2768;53.540;10.224;2022-11-15T20:44:38;15.33;;;11.50;;
5491;SDS011;2768;53.540;10.224;2022-11-15T20:50:33;17.67;;;12.50;;
5491;SDS011;2768;53.540;10.224;2022-11-15T20:56:33;17.27;;;12.50;;
5491;SDS011;2768;53.540;10.224;2022-11-15T21:02:27;16.33;;;13.07;;
5491;SDS011;2768;53.540;10.224;2022-11-15T21:08:21;16.40;;;13.20;;
5491;SDS011;2768;53.540;10.224;2022-11-15T21:14:15;14.90;;;13.17;;
5491;SDS011;2768;53.540;10.224;2022-11-15T21:20:08;14.03;;;11.93;;
5491;SDS011;2768;53.540;10.224;2022-11-15T21:26:04;14.60;;;12.90;;
5491;SDS011;2768;53.540;10.224;2022-11-15T21:31:58;14.73;;;11.80;;
5491;SDS011;2768;53.540;10.224;2022-11-15T21:37:57;15.00;;;12.57;;
5491;SDS011;2768;53.540;10.224;2022-11-15T21:43:51;14.53;;;12.00;;
5491;SDS011;2768;53.540;10.224;2022-11-15T21:49:49;16.53;;;13.30;;
5491;SDS011;2768;53.540;10.224;2022-11-15T21:55:42;15.80;;;13.00;;
5491;SDS011;2768;53.540;10.224;2022-11-15T22:01:37;14.80;;;13.03;;
5491;SDS011;2768;53.540;10.224;2022-11-15T22:07:48;14.43;;;12.93;;
5491;SDS011;2768;53.540;10.224;2022-11-15T22:13:41;15.27;;;12.83;;
5491;SDS011;2768;53.540;10.224;2022-11-15T22:19:36;15.13;;;13.40;;
5491;SDS011;2768;53.540;10.224;2022-11-15T22:25:43;15.67;;;13.97;;
5491;SDS011;2768;53.540;10.224;2022-11-15T22:31:36;14.53;;;13.13;;
5491;SDS011;2768;53.540;10.224;2022-11-15T22:37:31;16.07;;;13.03;;
5491;SDS011;2768;53.540;10.224;2022-11-15T22:43:24;15.83;;;13.70;;
5491;SDS011;2768;53.540;10.224;2022-11-15T22:49:19;18.00;;;13.70;;
5491;SDS011;2768;53.540;10.224;2022-11-15T22:55:14;15.60;;;13.87;;
5491;SDS011;2768;53.540;10.224;2022-11-15T23:01:13;14.07;;;12.13;;
5491;SDS011;2768;53.540;10.224;2022-11-15T23:07:12;14.27;;;12.37;;
5491;SDS011;2768;53.540;10.224;2022-11-15T23:13:08;15.20;;;13.00;;
5491;SDS011;2768;53.540;10.224;2022-11-15T23:19:10;14.73;;;13.13;;
5491;SDS011;2768;53.540;10.224;2022-11-15T23:25:04;16.73;;;13.90;;
5491;SDS011;2768;53.540;10.224;2022-11-15T23:31:02;14.80;;;13.20;;
5491;SDS011;2768;53.540;10.224;2022-11-15T23:37:14;15.50;;;13.47;;
5491;SDS011;2768;53.540;10.224;2022-11-15T23:43:07;15.53;;;12.90;;
5491;SDS011;2768;53.540;10.224;2022-11-15T23:49:02;17.20;;;13.77;;
5491;SDS011;2768;53.540;10.224;2022-11-15T23:54:56;17.00;;;14.20;;
